Time;durP1;ratioP1;P1;durP2;ratioP2;P2;SDS_P1;SDS_P2;PMS_P1;PMS_P2;Temp;Humidity;BMP_temperature;BMP_pressure;BME280_temperature;BME280_humidity;BME280_pressure;Samples;Min_cycle;Max_cycle;Signal;HPM_P1;HPM_P2
2022/07/17 00:02:01;;;;;;;;;;;22.60;54.50;;;;;;5002950;28;20296;-79
2022/07/17 00:04:27;;;;;;;;;;;22.50;54.80;;;;;;5004024;28;19912;-79
2022/07/17 00:06:52;;;;;;;;;;;22.50;54.90;;;;;;5024813;28;20510;-81
2022/07/17 00:09:18;;;;;;;;;;;22.40;55.00;;;;;;5017679;28;19921;-80
2022/07/17 00:11:43;;;;;;;;;;;22.40;55.10;;;;;;5019160;28;20398;-80
2022/07/17 00:14:09;;;;;;;;;;;22.30;55.00;;;;;;5010374;28;19987;-80
2022/07/17 00:16:34;;;;;;;;;;;22.30;55.20;;;;;;5019173;28;19919;-80
2022/07/17 00:19:00;;;;;;;;;;;22.20;55.60;;;;;;5024053;28;19917;-80
2022/07/17 00:21:25;;;;;;;;;;;22.20;55.50;;;;;;5022153;28;19920;-79
2022/07/17 00:23:51;;;;;;;;;;;22.20;55.50;;;;;;5023393;28;19955;-80
2022/07/17 00:26:16;;;;;;;;;;;22.20;55.60;;;;;;5023515;28;19913;-80
2022/07/17 00:28:42;;;;;;;;;;;22.20;55.60;;;;;;5022059;28;20684;-80
2022/07/17 00:31:08;;;;;;;;;;;22.20;55.70;;;;;;5022367;28;19984;-79
2022/07/17 00:33:33;;;;;;;;;;;22.20;55.80;;;;;;5023171;28;19916;-79
2022/07/17 00:35:59;;;;;;;;;;;22.00;56.20;;;;;;5022328;28;20458;-79
2022/07/17 00:38:24;;;;;;;;;;;21.90;56.40;;;;;;5020709;28;19920;-79
2022/07/17 00:40:52;;;;;;;;;;;22.10;55.90;;;;;;5030066;28;19913;-80
2022/07/17 00:43:18;;;;;;;;;;;22.00;56.10;;;;;;5013864;28;20333;-80
2022/07/17 00:45:43;;;;;;;;;;;22.00;56.10;;;;;;5011982;28;19917;-79
2022/07/17 00:48:10;;;;;;;;;;;21.90;56.60;;;;;;5035215;28;19917;-80
2022/07/17 00:50:36;;;;;;;;;;;21.80;56.50;;;;;;5023706;28;19913;-80
2022/07/17 00:53:03;;;;;;;;;;;21.80;56.60;;;;;;5022212;28;19956;-79
2022/07/17 00:55:29;;;;;;;;;;;21.80;56.60;;;;;;5020943;28;20000;-79
2022/07/17 00:57:55;;;;;;;;;;;21.80;56.70;;;;;;5021867;28;20819;-79
2022/07/17 01:00:21;;;;;;;;;;;21.70;57.10;;;;;;5017466;28;19913;-79
2022/07/17 01:02:48;;;;;;;;;;;21.80;56.60;;;;;;5018657;28;20373;-79
2022/07/17 01:05:14;;;;;;;;;;;21.70;57.00;;;;;;5019066;28;19913;-79
2022/07/17 01:07:39;;;;;;;;;;;21.60;57.00;;;;;;5003633;28;20800;-79
2022/07/17 01:10:05;;;;;;;;;;;21.50;57.30;;;;;;5019718;28;19923;-79
2022/07/17 01:12:32;;;;;;;;;;;21.50;57.50;;;;;;5021263;28;19964;-79
2022/07/17 01:14:58;;;;;;;;;;;21.30;57.70;;;;;;5017815;28;19913;-79
2022/07/17 01:17:23;;;;;;;;;;;21.40;57.50;;;;;;5039744;28;19923;-80
2022/07/17 01:19:49;;;;;;;;;;;21.40;58.10;;;;;;5025474;28;19913;-79
2022/07/17 01:22:14;;;;;;;;;;;21.50;57.60;;;;;;5022891;28;20334;-79
2022/07/17 01:24:40;;;;;;;;;;;21.40;57.90;;;;;;5022949;28;19949;-80
2022/07/17 01:27:06;;;;;;;;;;;21.50;57.60;;;;;;4999736;28;20864;-79
2022/07/17 01:29:31;;;;;;;;;;;21.40;57.70;;;;;;5022566;28;19912;-78
2022/07/17 01:31:57;;;;;;;;;;;21.30;58.00;;;;;;5018777;28;19913;-79
2022/07/17 01:34:22;;;;;;;;;;;21.20;58.40;;;;;;5021973;28;20011;-79
2022/07/17 01:36:48;;;;;;;;;;;21.20;58.40;;;;;;5023475;28;20297;-79
2022/07/17 01:39:13;;;;;;;;;;;21.20;58.30;;;;;;5023579;28;19913;-79
2022/07/17 01:41:39;;;;;;;;;;;21.30;58.20;;;;;;5023061;28;19912;-79
2022/07/17 01:44:06;;;;;;;;;;;21.20;58.30;;;;;;5024594;28;19917;-79
2022/07/17 01:46:31;;;;;;;;;;;21.10;58.60;;;;;;5019745;28;19913;-78
2022/07/17 01:48:57;;;;;;;;;;;21.10;58.60;;;;;;5024126;28;19940;-78
2022/07/17 01:51:22;;;;;;;;;;;21.00;58.60;;;;;;5022463;28;20055;-79
2022/07/17 01:53:48;;;;;;;;;;;21.10;58.70;;;;;;5022166;28;19913;-80
2022/07/17 01:56:13;;;;;;;;;;;21.00;58.80;;;;;;5020126;28;19967;-79
2022/07/17 01:58:39;;;;;;;;;;;21.00;58.90;;;;;;5023659;28;20460;-79
2022/07/17 02:01:05;;;;;;;;;;;21.00;58.90;;;;;;5021739;28;19913;-79
2022/07/17 02:03:30;;;;;;;;;;;20.80;59.40;;;;;;5013053;28;19921;-79
2022/07/17 02:05:56;;;;;;;;;;;20.80;59.40;;;;;;5020417;28;19913;-79
2022/07/17 02:08:21;;;;;;;;;;;20.90;59.20;;;;;;5023459;28;19928;-80
2022/07/17 02:10:47;;;;;;;;;;;20.80;59.60;;;;;;5021014;28;19948;-78
2022/07/17 02:13:12;;;;;;;;;;;20.70;59.60;;;;;;5021217;28;19909;-80
2022/07/17 02:15:38;;;;;;;;;;;20.60;59.90;;;;;;5024206;28;19916;-78
2022/07/17 02:18:03;;;;;;;;;;;20.70;59.70;;;;;;5028012;28;19995;-79
2022/07/17 02:20:29;;;;;;;;;;;20.60;60.00;;;;;;5022642;28;20412;-79
2022/07/17 02:22:54;;;;;;;;;;;20.60;60.00;;;;;;5010376;28;19925;-79
2022/07/17 02:25:20;;;;;;;;;;;20.60;60.00;;;;;;5022744;28;19916;-79
2022/07/17 02:27:46;;;;;;;;;;;20.60;60.10;;;;;;5022663;28;19921;-79
2022/07/17 02:30:15;;;;;;;;;;;20.60;60.10;;;;;;5025827;28;19913;-79
2022/07/17 02:32:40;;;;;;;;;;;20.60;60.20;;;;;;5018908;28;19914;-80
2022/07/17 02:35:07;;;;;;;;;;;20.40;60.20;;;;;;5008810;28;19913;-80
2022/07/17 02:37:33;;;;;;;;;;;20.40;60.50;;;;;;5022977;28;19913;-79
2022/07/17 02:39:58;;;;;;;;;;;20.40;60.70;;;;;;5022158;28;19920;-79
2022/07/17 02:42:28;;;;;;;;;;;20.40;60.40;;;;;;5022362;28;19913;-80
2022/07/17 02:44:54;;;;;;;;;;;20.40;60.50;;;;;;5029801;28;20026;-80
2022/07/17 02:47:21;;;;;;;;;;;20.40;60.70;;;;;;5031105;28;20008;-80
2022/07/17 02:49:47;;;;;;;;;;;20.30;60.70;;;;;;5024972;28;20052;-80
2022/07/17 02:52:12;;;;;;;;;;;20.30;60.90;;;;;;5023462;28;20531;-79
2022/07/17 02:54:38;;;;;;;;;;;20.20;61.10;;;;;;5000832;28;19913;-79
2022/07/17 02:57:03;;;;;;;;;;;20.10;61.40;;;;;;5015302;28;20324;-79
2022/07/17 02:59:29;;;;;;;;;;;20.10;61.40;;;;;;5022336;28;19913;-79
2022/07/17 03:01:55;;;;;;;;;;;20.00;61.80;;;;;;5020275;28;20503;-80
2022/07/17 03:04:20;;;;;;;;;;;20.00;62.10;;;;;;5023234;28;19920;-78
2022/07/17 03:06:46;;;;;;;;;;;19.90;62.50;;;;;;5021412;28;19919;-79
2022/07/17 03:09:11;;;;;;;;;;;19.90;63.00;;;;;;5020095;28;20336;-79
2022/07/17 03:11:37;;;;;;;;;;;19.90;62.30;;;;;;5018852;28;19917;-79
2022/07/17 03:14:02;;;;;;;;;;;19.90;62.40;;;;;;5018244;28;20664;-79
2022/07/17 03:16:28;;;;;;;;;;;19.80;62.60;;;;;;5022186;28;19917;-80
2022/07/17 03:18:53;;;;;;;;;;;19.70;62.70;;;;;;5005005;28;19913;-79
2022/07/17 03:21:19;;;;;;;;;;;19.70;63.10;;;;;;5007420;28;19913;-79
2022/07/17 03:23:45;;;;;;;;;;;19.60;63.20;;;;;;5022741;28;20386;-79
2022/07/17 03:26:10;;;;;;;;;;;19.50;63.40;;;;;;5023307;28;19919;-79
2022/07/17 03:28:36;;;;;;;;;;;19.50;63.80;;;;;;5021986;28;19939;-79
2022/07/17 03:31:01;;;;;;;;;;;19.50;63.60;;;;;;5023534;28;19913;-79
2022/07/17 03:33:27;;;;;;;;;;;19.40;64.00;;;;;;5014205;28;19951;-79
2022/07/17 03:35:52;;;;;;;;;;;19.40;64.20;;;;;;5018190;28;19913;-78
2022/07/17 03:38:18;;;;;;;;;;;19.40;64.00;;;;;;5019939;28;19971;-79
2022/07/17 03:40:43;;;;;;;;;;;19.30;64.50;;;;;;5019461;28;19944;-79
2022/07/17 03:43:09;;;;;;;;;;;19.20;65.00;;;;;;5022302;28;20020;-79
2022/07/17 03:45:35;;;;;;;;;;;19.20;64.60;;;;;;5015128;28;20035;-79
2022/07/17 03:48:00;;;;;;;;;;;19.10;64.90;;;;;;5018828;28;19925;-78
2022/07/17 03:50:26;;;;;;;;;;;19.10;65.10;;;;;;5023290;28;20380;-81
2022/07/17 03:52:51;;;;;;;;;;;19.20;64.80;;;;;;5023244;28;20503;-81
2022/07/17 03:55:17;;;;;;;;;;;19.20;65.30;;;;;;5022145;28;20531;-82
2022/07/17 03:57:42;;;;;;;;;;;19.00;65.80;;;;;;5020909;28;21006;-81
2022/07/17 04:00:09;;;;;;;;;;;19.00;65.50;;;;;;5023351;28;19939;-81
2022/07/17 04:02:34;;;;;;;;;;;19.00;65.80;;;;;;5019404;28;19997;-81
2022/07/17 04:05:00;;;;;;;;;;;19.00;65.50;;;;;;5021194;28;19941;-81
2022/07/17 04:07:28;;;;;;;;;;;19.00;65.60;;;;;;5020791;28;19920;-81
2022/07/17 04:09:57;;;;;;;;;;;19.10;65.50;;;;;;5023290;28;20007;-81
2022/07/17 04:12:23;;;;;;;;;;;19.00;65.80;;;;;;5016338;28;19917;-81
2022/07/17 04:14:49;;;;;;;;;;;19.00;66.00;;;;;;5020116;28;19982;-81
2022/07/17 04:17:14;;;;;;;;;;;18.90;66.50;;;;;;5019694;28;19968;-80
2022/07/17 04:19:40;;;;;;;;;;;18.90;66.60;;;;;;5004033;28;20483;-80
2022/07/17 04:22:05;;;;;;;;;;;19.00;66.40;;;;;;5036497;28;20451;-79
2022/07/17 04:24:31;;;;;;;;;;;18.90;66.50;;;;;;5024005;28;19913;-79
2022/07/17 04:26:57;;;;;;;;;;;18.90;66.60;;;;;;5015419;28;19949;-80
2022/07/17 04:29:22;;;;;;;;;;;19.00;66.40;;;;;;5015081;28;19921;-79
2022/07/17 04:31:48;;;;;;;;;;;19.00;66.70;;;;;;5027071;28;19913;-80
2022/07/17 04:34:13;;;;;;;;;;;18.90;67.20;;;;;;5026974;28;19920;-79
2022/07/17 04:36:39;;;;;;;;;;;18.90;67.00;;;;;;5029332;28;19935;-79
2022/07/17 04:39:04;;;;;;;;;;;19.00;67.20;;;;;;5003887;28;20376;-83
2022/07/17 04:41:30;;;;;;;;;;;19.30;66.40;;;;;;5014774;28;19952;-79
2022/07/17 04:43:56;;;;;;;;;;;19.70;65.00;;;;;;5019828;28;20386;-81
2022/07/17 04:46:21;;;;;;;;;;;19.70;64.70;;;;;;5019915;28;19913;-81
2022/07/17 04:48:47;;;;;;;;;;;19.70;64.90;;;;;;5025878;28;19921;-79
2022/07/17 04:51:12;;;;;;;;;;;19.80;64.50;;;;;;5029665;28;19920;-78
2022/07/17 04:53:38;;;;;;;;;;;19.90;64.50;;;;;;5026655;28;20573;-78
2022/07/17 04:56:03;;;;;;;;;;;19.90;64.50;;;;;;5027239;28;20235;-79
2022/07/17 04:58:29;;;;;;;;;;;20.10;64.40;;;;;;4994248;28;19936;-79
2022/07/17 05:00:54;;;;;;;;;;;20.20;63.60;;;;;;5025285;28;19966;-79
2022/07/17 05:03:20;;;;;;;;;;;20.30;63.20;;;;;;5024587;28;19919;-80
2022/07/17 05:05:46;;;;;;;;;;;20.40;63.70;;;;;;5025708;28;19920;-80
2022/07/17 05:08:11;;;;;;;;;;;20.40;63.50;;;;;;5019989;28;20020;-81
2022/07/17 05:10:36;;;;;;;;;;;20.50;62.80;;;;;;5020459;28;20025;-79
2022/07/17 05:13:02;;;;;;;;;;;20.60;62.90;;;;;;5016120;28;20652;-80
2022/07/17 05:15:28;;;;;;;;;;;20.80;62.40;;;;;;5025006;28;19920;-79
2022/07/17 05:17:53;;;;;;;;;;;21.00;62.40;;;;;;5019283;28;19913;-79
2022/07/17 05:20:19;;;;;;;;;;;21.00;61.70;;;;;;5023925;28;19986;-78
2022/07/17 05:22:45;;;;;;;;;;;21.30;61.40;;;;;;5025694;28;19924;-81
2022/07/17 05:25:10;;;;;;;;;;;21.30;61.80;;;;;;5021843;28;19963;-79
2022/07/17 05:27:36;;;;;;;;;;;21.70;60.80;;;;;;5014016;28;19944;-79
2022/07/17 05:30:01;;;;;;;;;;;22.10;60.00;;;;;;5019121;28;19916;-79
2022/07/17 05:32:27;;;;;;;;;;;22.10;59.50;;;;;;5020651;28;19959;-79
2022/07/17 05:34:52;;;;;;;;;;;22.00;59.90;;;;;;5024377;28;19924;-79
2022/07/17 05:37:18;;;;;;;;;;;21.90;59.70;;;;;;5024069;28;19921;-90
2022/07/17 05:39:43;;;;;;;;;;;22.30;59.40;;;;;;5024990;28;20047;-91
2022/07/17 05:42:09;;;;;;;;;;;22.90;58.40;;;;;;5006422;28;19917;-89
2022/07/17 05:44:34;;;;;;;;;;;23.60;57.20;;;;;;5026344;28;20366;-89
2022/07/17 05:47:00;;;;;;;;;;;23.40;57.00;;;;;;5021926;28;20027;-89
2022/07/17 05:49:25;;;;;;;;;;;24.00;56.10;;;;;;5020695;28;20012;-90
2022/07/17 05:51:51;;;;;;;;;;;24.30;55.30;;;;;;5026100;28;19999;-90
2022/07/17 05:54:17;;;;;;;;;;;24.40;54.50;;;;;;5026573;28;20008;-90
2022/07/17 05:56:42;;;;;;;;;;;24.60;54.60;;;;;;5025129;28;19912;-89
2022/07/17 05:59:08;;;;;;;;;;;25.10;54.00;;;;;;5015023;28;19981;-89
2022/07/17 06:01:33;;;;;;;;;;;25.20;53.90;;;;;;5012115;28;19924;-90
2022/07/17 06:03:59;;;;;;;;;;;25.30;53.50;;;;;;5024534;28;20020;-91
2022/07/17 06:06:24;;;;;;;;;;;25.20;53.20;;;;;;5008724;28;20246;-89
2022/07/17 06:08:50;;;;;;;;;;;25.90;52.50;;;;;;5022605;28;19928;-92
2022/07/17 06:11:15;;;;;;;;;;;26.00;52.00;;;;;;5025787;28;19917;-89
2022/07/17 06:13:41;;;;;;;;;;;26.30;52.00;;;;;;5025646;28;19920;-87
2022/07/17 06:16:06;;;;;;;;;;;26.20;51.80;;;;;;5023131;28;19913;-87
2022/07/17 06:18:32;;;;;;;;;;;26.30;51.50;;;;;;5013135;28;19924;-86
2022/07/17 06:20:58;;;;;;;;;;;26.70;50.50;;;;;;5021655;28;20707;-88
2022/07/17 06:23:23;;;;;;;;;;;26.90;51.10;;;;;;5025736;28;19974;-87
2022/07/17 06:25:49;;;;;;;;;;;27.50;50.10;;;;;;5023022;28;20369;-86
2022/07/17 06:28:14;;;;;;;;;;;27.20;49.40;;;;;;5017817;28;20085;-86
2022/07/17 06:30:39;;;;;;;;;;;27.30;49.80;;;;;;5022593;28;20026;-86
2022/07/17 06:33:05;;;;;;;;;;;27.30;49.20;;;;;;5025653;28;19916;-87
2022/07/17 06:35:33;;;;;;;;;;;27.60;48.90;;;;;;5025704;28;19917;-87
2022/07/17 06:37:59;;;;;;;;;;;27.90;49.20;;;;;;5025515;28;20645;-89
2022/07/17 06:40:24;;;;;;;;;;;28.00;48.20;;;;;;5025218;28;19919;-89
2022/07/17 06:42:50;;;;;;;;;;;28.00;48.60;;;;;;5017496;28;21091;-90
2022/07/17 06:45:15;;;;;;;;;;;28.50;47.10;;;;;;5012976;28;20343;-94
2022/07/17 06:47:41;;;;;;;;;;;28.30;47.50;;;;;;5007393;28;19921;-85
2022/07/17 06:50:07;;;;;;;;;;;28.80;46.70;;;;;;5023952;28;19979;-84
2022/07/17 06:52:32;;;;;;;;;;;28.90;45.80;;;;;;5024265;28;20444;-85
2022/07/17 06:54:58;;;;;;;;;;;29.40;46.30;;;;;;5006766;28;19909;-84
2022/07/17 06:57:23;;;;;;;;;;;29.80;46.20;;;;;;5024386;28;19916;-84
2022/07/17 06:59:49;;;;;;;;;;;29.90;46.30;;;;;;5026743;28;19908;-85
2022/07/17 07:02:14;;;;;;;;;;;30.60;45.40;;;;;;5036131;28;19920;-84
2022/07/17 07:04:40;;;;;;;;;;;30.00;45.20;;;;;;5022969;28;19988;-85
2022/07/17 07:07:05;;;;;;;;;;;30.30;45.50;;;;;;5024656;28;19966;-85
2022/07/17 07:09:32;;;;;;;;;;;30.80;44.60;;;;;;5025170;28;19922;-83
2022/07/17 07:11:58;;;;;;;;;;;31.20;44.10;;;;;;5022953;28;20381;-84
2022/07/17 07:14:23;;;;;;;;;;;31.10;44.80;;;;;;5027498;28;19920;-84
2022/07/17 07:16:49;;;;;;;;;;;31.40;43.40;;;;;;5014905;28;19917;-84
2022/07/17 07:19:14;;;;;;;;;;;31.20;44.20;;;;;;5015823;28;19913;-84
2022/07/17 07:21:40;;;;;;;;;;;31.40;43.70;;;;;;5026264;28;19923;-84
2022/07/17 07:24:05;;;;;;;;;;;31.80;44.20;;;;;;5025037;28;19924;-86
2022/07/17 07:26:31;;;;;;;;;;;32.20;43.70;;;;;;5028919;28;19909;-84
2022/07/17 07:28:56;;;;;;;;;;;31.80;43.40;;;;;;5018757;28;19917;-85
2022/07/17 07:31:22;;;;;;;;;;;31.40;44.30;;;;;;5024417;28;20264;-86
2022/07/17 07:33:47;;;;;;;;;;;31.50;43.40;;;;;;5040339;28;20463;-85
2022/07/17 07:36:13;;;;;;;;;;;29.70;45.10;;;;;;5019178;28;19947;-85
2022/07/17 07:38:39;;;;;;;;;;;30.70;44.90;;;;;;5016033;28;20396;-86
2022/07/17 07:41:04;;;;;;;;;;;31.00;44.80;;;;;;5011834;28;20007;-85
2022/07/17 07:43:30;;;;;;;;;;;31.00;44.20;;;;;;5012131;28;19914;-86
2022/07/17 07:45:56;;;;;;;;;;;31.80;44.60;;;;;;5019296;28;20412;-84
2022/07/17 07:48:21;;;;;;;;;;;32.70;43.70;;;;;;5026711;28;20509;-86
2022/07/17 07:50:47;;;;;;;;;;;32.90;43.50;;;;;;5029294;28;19924;-85
2022/07/17 07:53:12;;;;;;;;;;;33.40;42.10;;;;;;5030819;28;19957;-83
2022/07/17 07:55:38;;;;;;;;;;;32.90;43.10;;;;;;5027918;28;20011;-84
2022/07/17 07:58:07;;;;;;;;;;;33.70;42.00;;;;;;5025381;28;19990;-83
2022/07/17 08:00:33;;;;;;;;;;;33.80;41.30;;;;;;5035527;28;19983;-84
2022/07/17 08:02:59;;;;;;;;;;;33.70;41.80;;;;;;5006813;28;20024;-84
2022/07/17 08:05:24;;;;;;;;;;;33.50;41.10;;;;;;5005458;28;19964;-83
2022/07/17 08:07:50;;;;;;;;;;;33.60;41.60;;;;;;5009136;28;20534;-86
2022/07/17 08:10:15;;;;;;;;;;;34.20;42.20;;;;;;5011622;28;19940;-85
2022/07/17 08:12:41;;;;;;;;;;;35.30;41.10;;;;;;5013754;28;19952;-85
2022/07/17 08:15:07;;;;;;;;;;;35.30;40.30;;;;;;5022493;28;19913;-85
2022/07/17 08:17:32;;;;;;;;;;;34.70;40.80;;;;;;5022372;28;19912;-85
2022/07/17 08:19:58;;;;;;;;;;;34.50;41.20;;;;;;5020979;28;20431;-85
2022/07/17 08:22:26;;;;;;;;;;;34.40;40.80;;;;;;5016783;28;20476;-85
2022/07/17 08:24:51;;;;;;;;;;;35.10;40.80;;;;;;5018581;28;20016;-83
2022/07/17 08:27:17;;;;;;;;;;;34.80;40.40;;;;;;5022594;28;20015;-85
2022/07/17 08:29:42;;;;;;;;;;;35.30;39.80;;;;;;5021999;28;19925;-84
2022/07/17 08:32:08;;;;;;;;;;;35.30;40.30;;;;;;5022092;28;20018;-85
2022/07/17 08:34:33;;;;;;;;;;;35.30;40.10;;;;;;5025591;28;19913;-84
2022/07/17 08:36:59;;;;;;;;;;;35.70;40.00;;;;;;5036828;28;19917;-83
2022/07/17 08:39:25;;;;;;;;;;;35.30;40.60;;;;;;5036665;28;19920;-83
2022/07/17 08:41:51;;;;;;;;;;;35.60;39.30;;;;;;5032369;28;19967;-84
2022/07/17 08:44:17;;;;;;;;;;;36.30;39.40;;;;;;5028679;28;19920;-84
2022/07/17 08:46:43;;;;;;;;;;;35.80;37.90;;;;;;5023648;28;19913;-85
2022/07/17 08:49:09;;;;;;;;;;;36.50;38.20;;;;;;5022466;28;19921;-85
2022/07/17 08:51:35;;;;;;;;;;;36.90;38.90;;;;;;5022395;28;19923;-85
2022/07/17 08:54:01;;;;;;;;;;;36.30;39.10;;;;;;5007633;28;19913;-85
2022/07/17 08:56:29;;;;;;;;;;;37.00;38.60;;;;;;5027682;28;19909;-83
2022/07/17 08:58:58;;;;;;;;;;;37.00;38.70;;;;;;5021651;28;19913;-84
2022/07/17 09:01:24;;;;;;;;;;;37.20;39.00;;;;;;5018291;28;19928;-84
2022/07/17 09:03:53;;;;;;;;;;;37.20;37.60;;;;;;5027194;28;19928;-85
2022/07/17 09:06:20;;;;;;;;;;;37.60;38.70;;;;;;5026056;28;19986;-84
2022/07/17 09:08:45;;;;;;;;;;;37.20;38.80;;;;;;5023371;28;19925;-85
2022/07/17 09:11:11;;;;;;;;;;;36.90;37.90;;;;;;5022498;28;19920;-84
2022/07/17 09:13:36;;;;;;;;;;;38.40;38.70;;;;;;5020375;28;19912;-84
2022/07/17 09:16:05;;;;;;;;;;;37.20;37.70;;;;;;5017443;28;20330;-85
2022/07/17 09:18:30;;;;;;;;;;;37.10;38.40;;;;;;5024187;28;20412;-84
2022/07/17 09:20:57;;;;;;;;;;;36.90;38.90;;;;;;5023460;28;19917;-92
2022/07/17 09:23:23;;;;;;;;;;;37.30;38.60;;;;;;5029050;28;20382;-91
2022/07/17 09:25:50;;;;;;;;;;;37.50;38.30;;;;;;5026007;28;20409;-94
2022/07/17 09:28:16;;;;;;;;;;;38.00;37.30;;;;;;5028810;28;19925;-93
2022/07/17 09:30:50;;;;;;;;;;;38.00;38.30;;;;;;5024877;28;20365;-93
2022/07/17 09:33:17;;;;;;;;;;;38.40;36.30;;;;;;5014861;28;19921;-94
2022/07/17 09:35:53;;;;;;;;;;;39.10;36.40;;;;;;5027607;28;20104;-92
2022/07/17 09:38:32;;;;;;;;;;;39.30;37.50;;;;;;5013887;28;19924;-93
2022/07/17 09:41:21;;;;;;;;;;;39.70;36.70;;;;;;5031428;28;19909;-92
2022/07/17 09:43:50;;;;;;;;;;;39.00;36.70;;;;;;5029661;28;20266;-94
2022/07/17 09:46:17;;;;;;;;;;;38.70;36.20;;;;;;5024652;28;19917;-93
2022/07/17 09:48:47;;;;;;;;;;;38.60;35.40;;;;;;5028645;28;19918;-94
2022/07/17 09:51:20;;;;;;;;;;;38.20;36.60;;;;;;5034258;28;19913;-95
2022/07/17 09:53:47;;;;;;;;;;;38.70;36.70;;;;;;5048343;28;19971;-95
2022/07/17 09:56:17;;;;;;;;;;;39.00;37.20;;;;;;5030588;28;19913;-92
2022/07/17 09:58:44;;;;;;;;;;;39.10;35.60;;;;;;5037096;28;19967;-94
2022/07/17 10:01:10;;;;;;;;;;;39.00;36.30;;;;;;5032430;28;20413;-96
2022/07/17 10:03:36;;;;;;;;;;;39.50;37.10;;;;;;5033942;28;19917;-95
2022/07/17 10:06:02;;;;;;;;;;;39.70;36.10;;;;;;5034342;28;19919;-95
2022/07/17 10:08:27;;;;;;;;;;;39.20;35.90;;;;;;5028820;28;20377;-82
2022/07/17 10:10:53;;;;;;;;;;;39.10;35.00;;;;;;5015724;28;19920;-84
2022/07/17 10:13:19;;;;;;;;;;;39.50;35.00;;;;;;5015754;28;20026;-85
2022/07/17 10:15:45;;;;;;;;;;;40.30;34.80;;;;;;5015393;28;19962;-84
2022/07/17 10:18:10;;;;;;;;;;;39.60;36.10;;;;;;5009561;28;19920;-85
2022/07/17 10:20:36;;;;;;;;;;;39.00;35.80;;;;;;5012016;28;19956;-86
2022/07/17 10:23:11;;;;;;;;;;;39.30;35.50;;;;;;5008809;28;20274;-85
2022/07/17 10:25:37;;;;;;;;;;;39.20;35.20;;;;;;5010063;28;19913;-84
2022/07/17 10:28:02;;;;;;;;;;;39.20;35.30;;;;;;5016977;28;20370;-84
2022/07/17 10:30:29;;;;;;;;;;;39.20;35.30;;;;;;5026031;28;19920;-85
2022/07/17 10:32:56;;;;;;;;;;;38.90;34.00;;;;;;5010490;28;21507;-83
2022/07/17 10:35:22;;;;;;;;;;;39.00;34.40;;;;;;5027588;28;20273;-85
2022/07/17 10:37:48;;;;;;;;;;;38.60;34.70;;;;;;4999677;28;19913;-85
2022/07/17 10:40:21;;;;;;;;;;;38.30;33.00;;;;;;5024632;28;19951;-85
2022/07/17 10:42:46;;;;;;;;;;;36.60;33.40;;;;;;5011061;28;20015;-87
2022/07/17 10:45:15;;;;;;;;;;;35.10;34.10;;;;;;5022740;28;19984;-84
2022/07/17 10:47:43;;;;;;;;;;;35.00;34.30;;;;;;5023353;28;19921;-84
2022/07/17 10:50:10;;;;;;;;;;;35.10;36.50;;;;;;5036944;28;19967;-85
2022/07/17 10:52:35;;;;;;;;;;;34.50;35.90;;;;;;5036757;28;19909;-84
2022/07/17 10:55:04;;;;;;;;;;;34.40;34.90;;;;;;5040482;28;19931;-85
2022/07/17 10:57:30;;;;;;;;;;;34.20;34.40;;;;;;5028116;28;19920;-85
2022/07/17 10:59:56;;;;;;;;;;;33.70;33.60;;;;;;5036186;28;20629;-85
2022/07/17 11:02:29;;;;;;;;;;;33.80;34.10;;;;;;5028350;28;19932;-85
2022/07/17 11:05:05;;;;;;;;;;;33.80;33.30;;;;;;5040041;28;19915;-85
2022/07/17 11:07:31;;;;;;;;;;;33.60;34.70;;;;;;5031009;28;19917;-85
2022/07/17 11:09:56;;;;;;;;;;;33.90;35.70;;;;;;5009468;28;19924;-84
2022/07/17 11:12:34;;;;;;;;;;;33.40;35.20;;;;;;5025124;28;20444;-84
2022/07/17 11:15:03;;;;;;;;;;;34.00;38.80;;;;;;5017095;28;19960;-85
2022/07/17 11:17:28;;;;;;;;;;;33.60;35.30;;;;;;4996350;28;19920;-85
2022/07/17 11:19:54;;;;;;;;;;;33.30;37.50;;;;;;5009165;28;19913;-85
2022/07/17 11:22:26;;;;;;;;;;;33.00;36.70;;;;;;5021308;28;19975;-85
2022/07/17 11:24:52;;;;;;;;;;;33.30;37.60;;;;;;5036966;28;19923;-86
2022/07/17 11:27:22;;;;;;;;;;;33.20;37.20;;;;;;5012545;28;20559;-86
2022/07/17 11:29:48;;;;;;;;;;;33.00;37.90;;;;;;5019173;28;19919;-86
2022/07/17 11:32:14;;;;;;;;;;;33.20;36.60;;;;;;5017934;28;19919;-86
2022/07/17 11:34:40;;;;;;;;;;;33.20;38.20;;;;;;5022637;28;20293;-86
2022/07/17 11:37:07;;;;;;;;;;;32.90;36.80;;;;;;5020271;28;19917;-87
2022/07/17 11:39:40;;;;;;;;;;;33.00;37.40;;;;;;5003965;28;19928;-86
2022/07/17 11:42:09;;;;;;;;;;;33.00;34.90;;;;;;5013747;28;19913;-86
2022/07/17 11:44:35;;;;;;;;;;;33.10;35.80;;;;;;5019694;28;20469;-86
2022/07/17 11:47:01;;;;;;;;;;;32.80;35.30;;;;;;5013753;28;19995;-86
2022/07/17 11:49:28;;;;;;;;;;;32.80;36.40;;;;;;5018772;28;20400;-86
2022/07/17 11:51:58;;;;;;;;;;;32.80;37.00;;;;;;5000749;28;19925;-86
2022/07/17 11:54:24;;;;;;;;;;;32.70;35.20;;;;;;5006232;28;19917;-86
2022/07/17 11:56:53;;;;;;;;;;;32.80;36.50;;;;;;5007792;28;19913;-86
2022/07/17 11:59:27;;;;;;;;;;;32.80;36.20;;;;;;5017808;28;19913;-87
2022/07/17 12:01:53;;;;;;;;;;;32.90;36.60;;;;;;5016064;28;19964;-85
2022/07/17 12:04:18;;;;;;;;;;;32.90;36.40;;;;;;5017775;28;19923;-86
2022/07/17 12:06:45;;;;;;;;;;;32.80;34.90;;;;;;5019713;28;20020;-86
2022/07/17 12:09:11;;;;;;;;;;;32.70;34.90;;;;;;5019989;28;19964;-86
2022/07/17 12:11:47;;;;;;;;;;;32.70;34.60;;;;;;5020827;28;19948;-86
2022/07/17 12:14:12;;;;;;;;;;;32.80;36.00;;;;;;5021891;28;19967;-85
2022/07/17 12:16:38;;;;;;;;;;;32.70;36.30;;;;;;5020864;28;19926;-86
2022/07/17 12:19:04;;;;;;;;;;;32.80;36.10;;;;;;5020976;28;19948;-87
2022/07/17 12:21:30;;;;;;;;;;;32.70;35.90;;;;;;5008694;28;19919;-84
2022/07/17 12:23:59;;;;;;;;;;;32.70;37.40;;;;;;5028361;28;19917;-83
2022/07/17 12:26:25;;;;;;;;;;;32.60;36.00;;;;;;5030513;28;19991;-83
2022/07/17 12:28:50;;;;;;;;;;;32.60;36.80;;;;;;5030245;28;19920;-84
2022/07/17 12:31:16;;;;;;;;;;;32.70;37.80;;;;;;5021120;28;19987;-84
2022/07/17 12:33:42;;;;;;;;;;;32.80;36.90;;;;;;5014363;28;19919;-84
2022/07/17 12:36:07;;;;;;;;;;;32.90;36.30;;;;;;5004847;28;20365;-84
2022/07/17 12:38:33;;;;;;;;;;;32.70;36.90;;;;;;5027878;28;20002;-84
2022/07/17 12:40:59;;;;;;;;;;;32.90;38.40;;;;;;5027066;28;19920;-85
2022/07/17 12:43:24;;;;;;;;;;;33.00;36.80;;;;;;5023754;28;19909;-85
2022/07/17 12:45:50;;;;;;;;;;;32.90;36.10;;;;;;5023413;28;19909;-85
2022/07/17 12:48:16;;;;;;;;;;;32.90;36.60;;;;;;5038924;28;20019;-85
2022/07/17 12:50:41;;;;;;;;;;;32.60;36.10;;;;;;5023829;28;20280;-85
2022/07/17 12:53:07;;;;;;;;;;;32.80;37.70;;;;;;5023108;28;19924;-85
2022/07/17 12:55:33;;;;;;;;;;;32.90;36.70;;;;;;5023658;28;19913;-85
2022/07/17 12:57:58;;;;;;;;;;;32.80;37.20;;;;;;5023334;28;19908;-85
2022/07/17 13:00:24;;;;;;;;;;;32.90;37.40;;;;;;5022759;28;20448;-83
2022/07/17 13:02:49;;;;;;;;;;;32.80;37.60;;;;;;5014337;28;19910;-84
2022/07/17 13:05:15;;;;;;;;;;;33.00;37.50;;;;;;5011351;28;19917;-85
2022/07/17 13:07:41;;;;;;;;;;;32.80;37.20;;;;;;5004470;28;19921;-84
2022/07/17 13:10:06;;;;;;;;;;;32.80;37.50;;;;;;5010241;28;19913;-84
2022/07/17 13:12:32;;;;;;;;;;;33.00;36.50;;;;;;5025212;28;19913;-83
2022/07/17 13:14:57;;;;;;;;;;;32.70;35.30;;;;;;5020550;28;19909;-83
2022/07/17 13:17:23;;;;;;;;;;;32.60;35.90;;;;;;5026329;28;19924;-84
2022/07/17 13:19:49;;;;;;;;;;;32.80;35.90;;;;;;5026329;28;20400;-84
2022/07/17 13:22:14;;;;;;;;;;;32.60;37.10;;;;;;5019916;28;20394;-84
2022/07/17 13:24:40;;;;;;;;;;;32.70;36.60;;;;;;5006203;28;19953;-84
2022/07/17 13:27:05;;;;;;;;;;;32.60;35.30;;;;;;5008647;28;20380;-84
2022/07/17 13:29:31;;;;;;;;;;;32.80;37.10;;;;;;5010295;28;20401;-84
2022/07/17 13:31:57;;;;;;;;;;;32.90;36.60;;;;;;5017518;28;19920;-84
2022/07/17 13:34:23;;;;;;;;;;;32.60;36.30;;;;;;5025512;28;20337;-83
2022/07/17 13:36:48;;;;;;;;;;;32.70;37.60;;;;;;5020534;28;20410;-84
2022/07/17 13:39:14;;;;;;;;;;;32.50;37.20;;;;;;5026058;28;20511;-84
2022/07/17 13:41:40;;;;;;;;;;;32.80;37.30;;;;;;5026286;28;19909;-84
2022/07/17 13:44:06;;;;;;;;;;;32.90;37.20;;;;;;5029812;28;19993;-84
2022/07/17 13:46:32;;;;;;;;;;;32.70;37.50;;;;;;5030006;28;19915;-84
2022/07/17 13:48:58;;;;;;;;;;;32.60;37.60;;;;;;5028087;28;19917;-84
2022/07/17 13:51:25;;;;;;;;;;;32.60;36.80;;;;;;5029861;28;20015;-84
2022/07/17 13:53:51;;;;;;;;;;;32.70;37.20;;;;;;5018851;28;20000;-84
2022/07/17 13:56:17;;;;;;;;;;;32.50;37.00;;;;;;5007899;28;20007;-84
2022/07/17 13:58:43;;;;;;;;;;;32.70;37.50;;;;;;5025587;28;19955;-83
2022/07/17 14:01:08;;;;;;;;;;;32.80;37.50;;;;;;5020645;28;19917;-84
2022/07/17 14:03:34;;;;;;;;;;;32.90;37.90;;;;;;5024643;28;19913;-83
2022/07/17 14:05:59;;;;;;;;;;;32.70;36.90;;;;;;5025965;28;19913;-87
2022/07/17 14:08:25;;;;;;;;;;;32.30;37.50;;;;;;5026852;28;19995;-87
2022/07/17 14:10:51;;;;;;;;;;;32.60;38.30;;;;;;5026773;28;19955;-88